createdAt,value
2019-02-25T00:00:01.399Z,82.00
2019-02-25T00:02:37.745Z,84.30
2019-02-25T00:05:08.773Z,87.60
2019-02-25T00:07:38.861Z,90.90
2019-02-25T00:10:16.496Z,92.20
2019-02-25T00:12:47.661Z,91.20
2019-02-25T00:15:17.748Z,91.40
2019-02-25T00:17:47.850Z,92.30
2019-02-25T00:20:17.938Z,92.40
2019-02-25T00:22:49.045Z,88.80
2019-02-25T00:25:21.785Z,84.70
2019-02-25T00:27:54.913Z,80.90
2019-02-25T00:30:26.937Z,79.70
2019-02-25T00:32:58.021Z,79.00
2019-02-25T00:35:28.126Z,80.30
2019-02-25T00:38:07.361Z,82.50
2019-02-25T00:40:37.455Z,82.60
2019-02-25T00:43:07.545Z,84.10
2019-02-25T00:45:38.569Z,84.00
2019-02-25T00:48:08.655Z,84.80
2019-02-25T00:50:39.701Z,85.30
2019-02-25T00:53:09.914Z,83.90
2019-02-25T00:55:41.981Z,84.40
2019-02-25T00:58:12.969Z,82.80
2019-02-25T01:00:43.173Z,84.80
2019-02-25T01:03:13.321Z,89.90
2019-02-25T01:05:45.421Z,92.70
2019-02-25T01:08:16.449Z,91.90
2019-02-25T01:10:46.509Z,91.90
2019-02-25T01:13:16.613Z,92.60
2019-02-25T01:15:47.636Z,92.10
2019-02-25T01:18:17.809Z,93.00
2019-02-25T01:20:47.913Z,91.70
2019-02-25T01:23:18.017Z,89.60
2019-02-25T01:25:49.075Z,88.20
2019-02-25T01:28:21.105Z,88.20
2019-02-25T01:30:57.914Z,86.70
2019-02-25T01:33:27.995Z,86.50
2019-02-25T01:35:58.091Z,88.20
2019-02-25T01:38:31.205Z,91.00
2019-02-25T01:41:02.238Z,92.90
2019-02-25T01:43:34.309Z,94.60
2019-02-25T01:46:13.280Z,96.80
2019-02-25T01:48:45.341Z,97.90
2019-02-25T01:51:15.433Z,96.40
2019-02-25T01:53:46.465Z,93.50
2019-02-25T01:56:17.537Z,92.10
2019-02-25T01:58:47.621Z,91.30
2019-02-25T02:01:23.499Z,89.80
2019-02-25T02:03:53.584Z,90.40
2019-02-25T02:06:23.681Z,89.80
2019-02-25T02:08:53.767Z,87.90
2019-02-25T02:11:23.857Z,91.10
2019-02-25T02:13:53.963Z,92.10
2019-02-25T02:16:26.102Z,93.40
2019-02-25T02:18:56.211Z,95.30
2019-02-25T02:21:26.297Z,95.20
2019-02-25T02:23:56.398Z,93.90
2019-02-25T02:26:26.517Z,92.10
2019-02-25T02:28:56.617Z,92.20
2019-02-25T02:31:26.706Z,92.10
2019-02-25T02:34:00.649Z,90.60
2019-02-25T02:36:33.729Z,87.60
2019-02-25T02:39:12.265Z,83.50
2019-02-25T02:42:13.589Z,80.10
2019-02-25T02:44:48.066Z,79.50
2019-02-25T02:47:38.973Z,83.50
2019-02-25T02:50:22.304Z,84.30
2019-02-25T02:52:52.471Z,87.00
2019-02-25T02:55:22.557Z,90.80
2019-02-25T02:57:52.691Z,90.10
2019-02-25T03:00:22.902Z,83.90
2019-02-25T03:02:52.985Z,79.30
2019-02-25T03:05:23.085Z,78.20
2019-02-25T03:07:53.189Z,77.20
2019-02-25T03:10:23.298Z,74.00
2019-02-25T03:12:54.337Z,71.40
2019-02-25T03:15:24.445Z,74.60
2019-02-25T03:17:54.542Z,76.60
2019-02-25T03:20:28.863Z,78.00
2019-02-25T03:22:58.961Z,71.90
2019-02-25T03:25:29.057Z,66.90
2019-02-25T03:27:59.166Z,63.00
2019-02-25T03:30:32.770Z,61.10
2019-02-25T03:33:06.930Z,65.80
2019-02-25T03:35:37.018Z,67.10
2019-02-25T03:38:08.013Z,65.20
2019-02-25T03:40:40.085Z,62.10
2019-02-25T03:43:10.194Z,60.90
2019-02-25T03:45:48.521Z,61.70
2019-02-25T03:48:18.657Z,65.90
2019-02-25T03:50:48.731Z,72.90
2019-02-25T03:53:18.813Z,79.00
2019-02-25T03:55:48.970Z,85.00
2019-02-25T03:58:19.067Z,90.20
2019-02-25T04:00:50.221Z,93.00
2019-02-25T04:03:20.398Z,94.90
2019-02-25T04:05:50.461Z,96.00
2019-02-25T04:08:20.613Z,97.00
2019-02-25T04:10:50.721Z,98.00
2019-02-25T04:13:20.813Z,98.50
2019-02-25T04:15:51.958Z,98.20
2019-02-25T04:18:23.061Z,99.30
2019-02-25T04:20:53.185Z,99.00
2019-02-25T04:23:23.274Z,99.00
2019-02-25T04:25:53.373Z,99.70
2019-02-25T04:28:23.477Z,99.90
2019-02-25T04:30:53.565Z,99.90
2019-02-25T04:33:24.697Z,99.90
2019-02-25T04:35:55.712Z,99.90
2019-02-25T04:38:26.778Z,99.90
2019-02-25T04:40:56.881Z,99.90
2019-02-25T04:43:26.993Z,99.90
2019-02-25T04:45:57.081Z,99.90
2019-02-25T04:48:27.185Z,99.90
2019-02-25T04:51:00.770Z,99.90
2019-02-25T04:53:30.871Z,99.90
2019-02-25T04:56:00.985Z,99.90
2019-02-25T04:58:32.007Z,99.90
2019-02-25T05:01:07.817Z,99.90
2019-02-25T05:03:37.905Z,99.90
2019-02-25T05:06:07.997Z,99.90
2019-02-25T05:08:38.089Z,99.90
2019-02-25T05:11:08.182Z,99.90
2019-02-25T05:13:38.312Z,99.90
2019-02-25T05:16:08.394Z,99.90
2019-02-25T05:18:38.489Z,99.90
2019-02-25T05:21:08.603Z,99.90
2019-02-25T05:23:40.669Z,99.90
2019-02-25T05:26:10.767Z,99.90
2019-02-25T05:28:41.812Z,99.90
2019-02-25T05:31:17.687Z,99.90
2019-02-25T05:33:47.805Z,99.90
2019-02-25T05:36:17.898Z,99.90
2019-02-25T05:38:58.675Z,99.90
2019-02-25T05:41:31.797Z,99.90
2019-02-25T05:44:01.879Z,99.90
2019-02-25T05:46:31.973Z,99.90
2019-02-25T05:49:02.057Z,99.90
2019-02-25T05:51:37.974Z,99.90
2019-02-25T05:54:11.823Z,99.90
2019-02-25T05:56:46.486Z,99.90
2019-02-25T05:59:22.375Z,99.90
2019-02-25T06:01:56.493Z,99.90
2019-02-25T06:04:26.585Z,99.90
2019-02-25T06:06:56.686Z,99.90
2019-02-25T06:09:26.793Z,99.90
2019-02-25T06:11:57.927Z,99.90
2019-02-25T06:14:33.749Z,99.90
2019-02-25T06:17:05.843Z,99.90
2019-02-25T06:19:36.917Z,99.90
2019-02-25T06:22:07.081Z,99.90
2019-02-25T06:24:37.173Z,99.90
2019-02-25T06:27:07.257Z,99.90
2019-02-25T06:29:38.314Z,99.90
2019-02-25T06:32:09.297Z,99.90
2019-02-25T06:34:39.404Z,99.90
2019-02-25T06:37:11.490Z,99.90
2019-02-25T06:39:44.645Z,99.90
2019-02-25T06:42:14.769Z,99.90
2019-02-25T06:44:44.857Z,99.90
2019-02-25T06:47:20.736Z,99.90
2019-02-25T06:52:32.755Z,99.90
2019-02-25T06:55:05.241Z,99.90
2019-02-25T06:57:35.357Z,99.90
2019-02-25T07:00:13.005Z,99.90
2019-02-25T07:02:45.165Z,99.90
2019-02-25T07:05:34.642Z,99.90
2019-02-25T07:08:09.741Z,99.90
2019-02-25T07:10:44.535Z,99.90
2019-02-25T07:13:26.349Z,99.90
2019-02-25T07:16:13.955Z,99.90
2019-02-25T07:19:01.853Z,99.90
2019-02-25T07:21:49.153Z,93.60
2019-02-25T07:24:35.581Z,88.50
2019-02-25T07:27:10.610Z,81.20
2019-02-25T07:29:47.422Z,74.50
2019-02-25T07:32:35.213Z,69.40
2019-02-25T07:35:15.617Z,65.20
2019-02-25T07:38:05.373Z,61.10
2019-02-25T07:40:49.685Z,56.90
2019-02-25T07:43:39.674Z,53.00
2019-02-25T07:46:20.281Z,51.70
2019-02-25T07:49:02.736Z,51.10
2019-02-25T07:51:36.911Z,49.60
2019-02-25T07:54:14.210Z,49.70
2019-02-25T07:56:54.705Z,48.30
2019-02-25T07:59:31.898Z,46.30
2019-02-25T08:02:09.365Z,42.90
2019-02-25T08:04:50.094Z,40.80
2019-02-25T08:07:37.824Z,38.60
2019-02-25T08:10:14.152Z,36.60
2019-02-25T08:12:46.897Z,35.10
2019-02-25T08:15:21.433Z,33.10
2019-02-25T08:18:06.765Z,31.90
2019-02-25T08:20:50.265Z,30.90
2019-02-25T08:23:22.025Z,31.00
2019-02-25T08:25:59.683Z,30.20
2019-02-25T08:28:34.384Z,29.30
2019-02-25T08:31:09.501Z,28.60
2019-02-25T08:33:55.561Z,28.00
2019-02-25T08:37:21.585Z,27.50
2019-02-25T08:40:27.305Z,26.30
2019-02-25T08:43:16.333Z,26.50
2019-02-25T08:46:03.917Z,26.20
2019-02-25T08:48:41.881Z,26.70
2019-02-25T08:51:18.901Z,27.90
2019-02-25T08:53:49.051Z,28.10
2019-02-25T08:56:20.777Z,29.10
2019-02-25T08:58:59.021Z,29.30
2019-02-25T09:01:30.102Z,29.10
2019-02-25T09:04:01.129Z,27.90
2019-02-25T09:06:31.385Z,28.20
2019-02-25T09:09:01.478Z,28.80
2019-02-25T09:11:37.341Z,28.40
2019-02-25T09:14:12.009Z,28.00
2019-02-25T09:16:44.021Z,27.50
2019-02-25T09:19:14.105Z,26.30
2019-02-25T09:21:45.997Z,26.00
2019-02-25T09:24:20.029Z,25.10
2019-02-25T09:26:51.109Z,25.30
2019-02-25T09:29:24.695Z,25.30
2019-02-25T09:31:54.776Z,24.90
2019-02-25T09:34:25.815Z,25.30
2019-02-25T09:36:55.913Z,26.00
2019-02-25T09:39:29.659Z,25.50
2019-02-25T09:42:06.365Z,25.20
2019-02-25T09:44:43.117Z,24.70
2019-02-25T09:47:13.221Z,24.70
2019-02-25T09:49:43.305Z,23.80
2019-02-25T09:52:19.221Z,24.40
2019-02-25T09:54:50.253Z,23.50
2019-02-25T09:57:20.333Z,23.60
2019-02-25T09:59:52.321Z,23.10
2019-02-25T10:02:22.431Z,23.20
2019-02-25T10:04:53.457Z,22.90
2019-02-25T10:07:23.549Z,22.90
2019-02-25T10:09:53.639Z,22.60
2019-02-25T10:12:32.589Z,22.50
2019-02-25T10:15:02.672Z,22.40
2019-02-25T10:17:38.801Z,21.70
2019-02-25T10:20:14.092Z,21.70
2019-02-25T10:22:45.168Z,21.50
2019-02-25T10:25:15.256Z,21.30
2019-02-25T10:27:59.397Z,21.50
2019-02-25T10:30:31.482Z,21.90
2019-02-25T10:33:02.459Z,21.70
2019-02-25T10:35:32.553Z,21.90
2019-02-25T10:38:03.250Z,22.20
2019-02-25T10:40:33.583Z,22.40
2019-02-25T10:43:04.633Z,22.20
2019-02-25T10:45:37.215Z,22.20
2019-02-25T10:48:11.457Z,22.30
2019-02-25T10:50:41.557Z,22.40
2019-02-25T10:53:13.642Z,22.90
2019-02-25T10:55:59.141Z,23.20
2019-02-25T10:58:31.147Z,23.20
2019-02-25T11:01:04.393Z,22.70
2019-02-25T11:03:35.353Z,22.90
2019-02-25T11:06:05.524Z,22.10
2019-02-25T11:08:39.330Z,22.60
2019-02-25T11:11:18.853Z,22.90
2019-02-25T11:13:54.161Z,22.80
2019-02-25T11:16:25.159Z,22.50
2019-02-25T11:19:00.920Z,22.10
2019-02-25T11:21:32.787Z,22.00
2019-02-25T11:24:03.061Z,22.20
2019-02-25T11:26:36.358Z,22.20
2019-02-25T11:29:08.193Z,22.30
2019-02-25T11:31:42.817Z,21.90
2019-02-25T11:34:12.902Z,21.60
2019-02-25T11:36:43.919Z,22.00
2019-02-25T11:39:16.295Z,22.00
2019-02-25T11:41:46.474Z,21.80
2019-02-25T11:44:18.953Z,22.40
2019-02-25T11:46:51.243Z,22.20
2019-02-25T11:49:23.293Z,22.40
2019-02-25T11:51:55.922Z,22.50
2019-02-25T11:54:28.066Z,22.10
2019-02-25T11:56:58.237Z,22.20
2019-02-25T11:59:48.179Z,22.10
2019-02-25T12:02:25.424Z,22.40
2019-02-25T12:04:56.782Z,22.40
2019-02-25T12:07:33.861Z,22.60
2019-02-25T12:10:05.294Z,22.70
2019-02-25T12:12:36.359Z,23.00
2019-02-25T12:15:16.675Z,22.90
2019-02-25T12:17:46.935Z,22.80
2019-02-25T12:20:17.909Z,23.40
2019-02-25T12:22:48.901Z,23.60
2019-02-25T12:25:23.698Z,22.70
2019-02-25T12:27:53.908Z,22.20
2019-02-25T12:30:28.584Z,22.70
2019-02-25T12:32:59.625Z,22.60
2019-02-25T12:35:29.701Z,22.20
2019-02-25T12:37:59.789Z,22.00
2019-02-25T12:40:29.879Z,22.00
2019-02-25T12:43:00.932Z,21.60
2019-02-25T12:45:34.157Z,21.10
2019-02-25T12:48:14.161Z,21.90
2019-02-25T12:50:45.229Z,21.50
2019-02-25T12:53:15.319Z,21.50
2019-02-25T12:55:45.408Z,21.30
2019-02-25T12:58:15.493Z,21.80
2019-02-25T13:00:45.616Z,22.30
2019-02-25T13:03:24.536Z,22.50
2019-02-25T13:05:54.620Z,23.30
2019-02-25T13:08:26.681Z,23.60
2019-02-25T13:10:56.772Z,23.80
2019-02-25T13:13:28.765Z,23.70
2019-02-25T13:15:59.749Z,23.70
2019-02-25T13:18:30.737Z,23.30
2019-02-25T13:21:00.818Z,22.70
2019-02-25T13:23:34.061Z,22.80
2019-02-25T13:26:07.341Z,23.40
2019-02-25T13:28:36.891Z,24.80
2019-02-25T13:31:08.485Z,26.40
2019-02-25T13:33:41.511Z,26.30
2019-02-25T13:36:12.703Z,26.00
2019-02-25T13:38:43.954Z,26.30
2019-02-25T13:41:14.049Z,26.20
2019-02-25T13:43:46.069Z,25.80
2019-02-25T13:46:16.145Z,25.10
2019-02-25T13:48:53.058Z,24.60
2019-02-25T13:51:24.070Z,24.40
2019-02-25T13:54:01.011Z,24.20
2019-02-25T13:56:31.096Z,24.30
2019-02-25T13:59:01.190Z,24.30
2019-02-25T14:01:32.430Z,24.30
2019-02-25T14:04:04.074Z,23.70
2019-02-25T14:06:34.138Z,23.40
2019-02-25T14:09:07.952Z,23.40
2019-02-25T14:11:38.074Z,23.40
2019-02-25T14:14:10.124Z,23.30
2019-02-25T14:16:41.175Z,23.20
2019-02-25T14:19:12.170Z,23.60
2019-02-25T14:21:42.247Z,23.90
2019-02-25T14:24:12.338Z,24.10
2019-02-25T14:26:45.414Z,24.30
2019-02-25T14:29:17.385Z,24.70
2019-02-25T14:31:53.316Z,26.20
2019-02-25T14:34:23.397Z,26.60
2019-02-25T14:36:54.928Z,26.10
2019-02-25T14:39:28.446Z,26.10
2019-02-25T14:42:03.922Z,26.80
2019-02-25T14:44:35.806Z,27.60
2019-02-25T14:47:19.814Z,27.80
2019-02-25T14:49:45.380Z,28.10
2019-02-25T14:52:15.534Z,28.70
2019-02-25T14:54:45.965Z,28.30
2019-02-25T14:57:20.295Z,27.40
2019-02-25T14:59:49.776Z,27.20
2019-02-25T15:02:20.958Z,26.50
2019-02-25T15:04:51.946Z,26.40
2019-02-25T15:07:22.034Z,25.90
2019-02-25T15:09:53.145Z,26.00
2019-02-25T15:12:23.614Z,26.10
2019-02-25T15:14:55.957Z,26.40
2019-02-25T15:17:26.186Z,26.60
2019-02-25T15:19:58.262Z,27.60
2019-02-25T15:22:32.043Z,28.30
2019-02-25T15:25:02.438Z,28.40
2019-02-25T15:27:33.434Z,29.50
2019-02-25T15:30:05.230Z,31.00
2019-02-25T15:32:37.111Z,33.10
2019-02-25T15:35:17.755Z,30.90
2019-02-25T15:37:50.608Z,30.70
2019-02-25T15:40:22.792Z,30.50
2019-02-25T15:43:10.431Z,30.50
2019-02-25T15:45:42.842Z,31.20
2019-02-25T15:48:18.743Z,32.00
2019-02-25T15:50:55.494Z,32.40
2019-02-25T15:53:27.190Z,32.70
2019-02-25T15:56:01.026Z,33.30
2019-02-25T15:58:30.058Z,34.10
2019-02-25T16:01:01.090Z,34.90
2019-02-25T16:03:35.044Z,35.40
2019-02-25T16:06:08.955Z,36.00
2019-02-25T16:08:49.934Z,36.80
2019-02-25T16:11:25.565Z,37.30
2019-02-25T16:13:55.795Z,37.80
2019-02-25T16:16:26.538Z,38.50
2019-02-25T16:19:05.629Z,39.00
2019-02-25T16:21:35.502Z,39.30
2019-02-25T16:24:08.250Z,39.50
2019-02-25T16:26:38.201Z,39.60
2019-02-25T16:29:11.156Z,40.10
2019-02-25T16:31:58.175Z,40.60
2019-02-25T16:34:38.254Z,41.10
2019-02-25T16:37:08.854Z,41.50
2019-02-25T16:39:43.522Z,42.00
2019-02-25T16:42:16.559Z,42.30
2019-02-25T16:44:46.706Z,42.80
2019-02-25T16:47:31.878Z,43.30
2019-02-25T16:49:52.652Z,44.00
2019-02-25T16:52:24.470Z,44.80
2019-02-25T16:54:55.939Z,46.50
2019-02-25T16:57:30.004Z,47.30
2019-02-25T17:00:02.251Z,48.10
2019-02-25T17:02:33.762Z,48.70
2019-02-25T17:05:14.920Z,48.80
2019-02-25T17:07:46.503Z,49.10
2019-02-25T17:10:29.188Z,49.30
2019-02-25T17:13:00.339Z,49.70
2019-02-25T17:15:38.059Z,49.90
2019-02-25T17:18:15.129Z,50.40
2019-02-25T17:20:45.063Z,51.00
2019-02-25T17:23:17.494Z,51.50
2019-02-25T17:25:48.554Z,52.00
2019-02-25T17:28:20.247Z,53.30
2019-02-25T17:30:52.727Z,54.70
2019-02-25T17:33:24.034Z,55.60
2019-02-25T17:35:56.214Z,56.60
2019-02-25T17:38:28.540Z,57.80
2019-02-25T17:41:03.310Z,58.70
2019-02-25T17:43:34.244Z,59.90
2019-02-25T17:46:07.049Z,62.50
2019-02-25T17:48:40.250Z,67.50
2019-02-25T17:51:11.726Z,74.90
2019-02-25T17:53:46.085Z,83.40
2019-02-25T17:56:18.027Z,88.00
2019-02-25T17:58:48.593Z,87.10
2019-02-25T18:01:21.280Z,88.40
2019-02-25T18:03:55.715Z,89.30
2019-02-25T18:06:30.174Z,89.90
2019-02-25T18:08:59.757Z,88.70
2019-02-25T18:11:39.079Z,88.10
2019-02-25T18:14:19.868Z,85.90
2019-02-25T18:17:03.374Z,87.20
2019-02-25T18:19:34.225Z,90.10
2019-02-25T18:22:11.672Z,92.10
2019-02-25T18:24:44.010Z,94.00
2019-02-25T18:27:34.844Z,95.60
2019-02-25T18:30:21.661Z,96.90
2019-02-25T18:32:55.199Z,99.70
2019-02-25T18:35:41.061Z,99.90
2019-02-25T18:38:10.589Z,99.90
2019-02-25T18:40:43.493Z,99.90
2019-02-25T18:43:13.713Z,99.90
2019-02-25T18:45:45.933Z,99.90
2019-02-25T18:48:16.935Z,99.90
2019-02-25T18:51:01.761Z,99.90
2019-02-25T18:53:33.922Z,99.90
2019-02-25T18:56:06.280Z,99.90
2019-02-25T18:58:37.556Z,99.90
2019-02-25T19:01:09.678Z,99.90
2019-02-25T19:03:40.081Z,99.90
2019-02-25T19:06:14.581Z,99.90
2019-02-25T19:08:45.339Z,99.90
2019-02-25T19:11:18.975Z,99.90
2019-02-25T19:13:56.618Z,99.90
2019-02-25T19:16:27.773Z,99.90
2019-02-25T19:19:08.050Z,99.90
2019-02-25T19:21:38.643Z,99.90
2019-02-25T19:24:12.096Z,99.90
2019-02-25T19:26:49.549Z,99.90
2019-02-25T19:29:21.797Z,99.90
2019-02-25T19:31:53.541Z,99.90
2019-02-25T19:34:23.625Z,99.90
2019-02-25T19:36:57.998Z,99.90
2019-02-25T19:39:25.638Z,99.90
2019-02-25T19:42:02.925Z,99.90
2019-02-25T19:44:38.110Z,99.90
2019-02-25T19:47:09.786Z,99.90
2019-02-25T19:49:41.409Z,99.90
2019-02-25T19:52:12.617Z,99.90
2019-02-25T19:54:45.827Z,99.90
2019-02-25T19:57:18.666Z,99.90
2019-02-25T19:59:50.563Z,99.90
2019-02-25T20:02:22.639Z,99.90
2019-02-25T20:04:59.612Z,99.90
2019-02-25T20:07:31.446Z,99.90
2019-02-25T20:10:11.619Z,99.90
2019-02-25T20:12:44.503Z,99.90
2019-02-25T20:15:24.891Z,99.90
2019-02-25T20:17:56.899Z,99.90
2019-02-25T20:20:28.720Z,99.90
2019-02-25T20:23:01.495Z,99.90
2019-02-25T20:25:31.698Z,99.90
2019-02-25T20:28:02.503Z,99.90
2019-02-25T20:30:33.654Z,99.90
2019-02-25T20:33:06.481Z,99.90
2019-02-25T20:35:36.477Z,99.90
2019-02-25T20:38:06.568Z,99.90
2019-02-25T20:40:36.645Z,99.90
2019-02-25T20:43:06.745Z,99.90
2019-02-25T20:45:37.202Z,99.90
2019-02-25T20:48:07.309Z,99.90
2019-02-25T20:50:37.405Z,99.90
2019-02-25T20:53:10.971Z,99.90
2019-02-25T20:55:40.409Z,99.90
2019-02-25T20:58:13.487Z,99.90
2019-02-25T21:00:44.187Z,99.90
2019-02-25T21:03:16.641Z,99.90
2019-02-25T21:05:47.329Z,99.90
2019-02-25T21:08:19.072Z,99.90
2019-02-25T21:10:49.647Z,99.90
2019-02-25T21:13:22.073Z,99.90
2019-02-25T21:15:52.557Z,99.90
2019-02-25T21:18:24.665Z,99.90
2019-02-25T21:20:58.181Z,99.90
2019-02-25T21:23:28.341Z,99.90
2019-02-25T21:25:59.912Z,99.90
2019-02-25T21:28:42.736Z,99.90
2019-02-25T21:31:16.155Z,99.90
2019-02-25T21:33:47.411Z,99.90
2019-02-25T21:36:16.509Z,99.90
2019-02-25T21:38:56.993Z,99.90
2019-02-25T21:41:27.073Z,99.90
2019-02-25T21:44:03.334Z,99.90
2019-02-25T21:46:35.405Z,99.90
2019-02-25T21:49:06.603Z,99.90
2019-02-25T21:51:39.194Z,99.90
2019-02-25T21:54:10.101Z,99.90
2019-02-25T21:56:40.201Z,99.90
2019-02-25T21:59:15.058Z,99.90
2019-02-25T22:01:44.733Z,99.90
2019-02-25T22:04:15.583Z,99.90
2019-02-25T22:06:49.054Z,99.90
2019-02-25T22:09:35.437Z,99.90
2019-02-25T22:11:52.237Z,99.90
2019-02-25T22:14:23.831Z,99.90
2019-02-25T22:16:54.832Z,99.90
2019-02-25T22:19:25.937Z,99.90
2019-02-25T22:21:57.963Z,99.90
2019-02-25T22:24:38.199Z,99.90
2019-02-25T22:27:08.058Z,99.90
2019-02-25T22:29:40.855Z,99.90
2019-02-25T22:32:11.021Z,99.90
2019-02-25T22:34:46.721Z,99.90
2019-02-25T22:37:19.295Z,99.90
2019-02-25T22:39:50.356Z,99.90
2019-02-25T22:42:28.987Z,99.90
2019-02-25T22:44:59.077Z,99.90
2019-02-25T22:47:29.187Z,99.90
2019-02-25T22:49:59.285Z,99.90
2019-02-25T22:52:33.176Z,99.90
2019-02-25T22:55:09.853Z,99.90
2019-02-25T22:57:43.479Z,99.90
2019-02-25T23:00:22.001Z,99.90
2019-02-25T23:03:03.251Z,99.90
2019-02-25T23:05:33.534Z,99.90
2019-02-25T23:08:03.597Z,99.90
2019-02-25T23:10:38.042Z,99.90
2019-02-25T23:13:09.581Z,99.90
2019-02-25T23:15:39.669Z,99.90
2019-02-25T23:18:13.855Z,99.90
2019-02-25T23:20:50.338Z,99.90
2019-02-25T23:23:25.437Z,99.90
2019-02-25T23:26:02.341Z,99.90
2019-02-25T23:28:32.446Z,99.90
2019-02-25T23:31:02.533Z,99.90
2019-02-25T23:33:32.637Z,99.90
2019-02-25T23:36:02.727Z,99.90
2019-02-25T23:38:41.902Z,99.90
2019-02-25T23:41:14.524Z,99.90
2019-02-25T23:43:48.724Z,99.90
2019-02-25T23:46:23.035Z,99.90
2019-02-25T23:48:50.195Z,99.90
2019-02-25T23:51:23.364Z,99.90
2019-02-25T23:53:55.902Z,99.90
2019-02-25T23:56:27.440Z,99.90
2019-02-25T23:58:58.025Z,99.90
